Time;durP1;ratioP1;P1;durP2;ratioP2;P2;SDS_P1;SDS_P2;PMS_P1;PMS_P2;Temp;Humidity;BMP_temperature;BMP_pressure;BME280_temperature;BME280_humidity;BME280_pressure;Samples;Min_cycle;Max_cycle;Signal;HPM_P1;HPM_P2
2023/06/04 00:01:26;;;;;;;;;;;15.30;82.90;;;;;;4965530;28;19914;-72
2023/06/04 00:03:52;;;;;;;;;;;15.20;83.50;;;;;;4963286;28;19914;-72
2023/06/04 00:06:18;;;;;;;;;;;15.30;83.60;;;;;;4963730;28;19945;-73
2023/06/04 00:08:44;;;;;;;;;;;15.20;84.20;;;;;;4961932;28;19961;-72
2023/06/04 00:11:14;;;;;;;;;;;15.20;85.20;;;;;;4969280;28;19957;-72
2023/06/04 00:13:40;;;;;;;;;;;15.20;86.00;;;;;;4964089;28;19910;-73
2023/06/04 00:16:06;;;;;;;;;;;15.20;86.40;;;;;;4968935;28;19914;-72
2023/06/04 00:18:32;;;;;;;;;;;15.10;86.60;;;;;;4977593;28;19916;-72
2023/06/04 00:20:59;;;;;;;;;;;15.20;86.60;;;;;;4964747;28;20005;-73
2023/06/04 00:23:24;;;;;;;;;;;15.20;86.30;;;;;;4970194;28;20333;-72
2023/06/04 00:25:50;;;;;;;;;;;15.20;86.70;;;;;;4964521;28;19997;-72
2023/06/04 00:28:16;;;;;;;;;;;15.20;87.60;;;;;;4969060;28;20013;-72
2023/06/04 00:30:42;;;;;;;;;;;15.10;88.00;;;;;;4963525;28;19938;-73
2023/06/04 00:33:07;;;;;;;;;;;15.10;88.40;;;;;;4969678;28;19932;-72
2023/06/04 00:35:33;;;;;;;;;;;15.10;88.60;;;;;;4965179;28;20065;-72
2023/06/04 00:37:59;;;;;;;;;;;15.00;88.70;;;;;;4967363;28;20008;-72
2023/06/04 00:40:25;;;;;;;;;;;15.10;88.10;;;;;;4966029;28;20013;-73
2023/06/04 00:42:55;;;;;;;;;;;15.10;89.50;;;;;;4970578;28;20005;-72
2023/06/04 00:45:21;;;;;;;;;;;15.00;89.10;;;;;;4970903;28;19914;-72
2023/06/04 00:47:47;;;;;;;;;;;15.00;90.00;;;;;;4968084;28;19927;-72
2023/06/04 00:50:14;;;;;;;;;;;15.00;89.70;;;;;;4963188;28;19926;-72
2023/06/04 00:52:40;;;;;;;;;;;15.10;90.10;;;;;;4969510;28;20359;-72
2023/06/04 00:55:09;;;;;;;;;;;15.00;90.40;;;;;;4965735;28;19945;-72
2023/06/04 00:57:34;;;;;;;;;;;14.90;90.50;;;;;;4970978;28;19921;-72
2023/06/04 01:00:01;;;;;;;;;;;14.90;90.80;;;;;;4966374;28;19910;-72
2023/06/04 01:02:27;;;;;;;;;;;14.90;90.90;;;;;;4967043;28;20682;-72
2023/06/04 01:05:03;;;;;;;;;;;14.90;91.00;;;;;;4969090;28;19957;-72
2023/06/04 01:07:30;;;;;;;;;;;14.90;91.20;;;;;;4964041;28;21366;-72
2023/06/04 01:09:55;;;;;;;;;;;14.80;91.30;;;;;;4959259;28;19910;-72
2023/06/04 01:12:21;;;;;;;;;;;14.80;91.50;;;;;;4963138;28;20419;-72
2023/06/04 01:14:47;;;;;;;;;;;14.80;91.70;;;;;;4969250;28;19926;-73
2023/06/04 01:17:15;;;;;;;;;;;14.80;91.80;;;;;;4965875;28;19914;-74
2023/06/04 01:20:00;;;;;;;;;;;14.80;91.90;;;;;;4966712;28;19910;-72
2023/06/04 01:22:46;;;;;;;;;;;14.70;92.00;;;;;;4970694;28;19929;-72
2023/06/04 01:25:19;;;;;;;;;;;14.80;92.20;;;;;;4949090;28;19921;-73
2023/06/04 01:27:50;;;;;;;;;;;14.70;92.20;;;;;;4969117;28;19993;-73
2023/06/04 01:30:17;;;;;;;;;;;14.70;92.40;;;;;;4961604;28;19929;-72
2023/06/04 01:32:46;;;;;;;;;;;14.80;92.50;;;;;;4962514;28;19921;-72
2023/06/04 01:35:13;;;;;;;;;;;14.70;92.40;;;;;;4967535;28;20415;-73
2023/06/04 01:37:38;;;;;;;;;;;14.70;92.50;;;;;;4965662;28;19958;-72
2023/06/04 01:40:05;;;;;;;;;;;14.70;92.50;;;;;;4971505;28;19910;-72
2023/06/04 01:42:32;;;;;;;;;;;14.70;92.50;;;;;;4960641;28;19914;-73
2023/06/04 01:44:58;;;;;;;;;;;14.70;92.40;;;;;;4970980;28;19956;-72
2023/06/04 01:47:24;;;;;;;;;;;14.60;92.90;;;;;;4967713;28;19972;-73
2023/06/04 01:49:55;;;;;;;;;;;14.60;92.70;;;;;;4967921;28;19917;-72
2023/06/04 01:52:23;;;;;;;;;;;14.60;92.70;;;;;;4962778;28;19910;-73
2023/06/04 01:54:52;;;;;;;;;;;14.60;92.70;;;;;;4967924;28;20010;-73
2023/06/04 01:57:19;;;;;;;;;;;14.60;92.60;;;;;;4966847;28;19988;-72
2023/06/04 01:59:44;;;;;;;;;;;14.60;92.50;;;;;;4972236;28;19914;-73
2023/06/04 02:02:11;;;;;;;;;;;14.60;92.90;;;;;;4962708;28;19910;-73
2023/06/04 02:04:41;;;;;;;;;;;14.50;93.10;;;;;;4968673;28;19936;-73
2023/06/04 02:07:08;;;;;;;;;;;14.40;93.60;;;;;;4973298;28;20024;-73
2023/06/04 02:09:34;;;;;;;;;;;14.40;93.90;;;;;;4964229;28;19910;-73
2023/06/04 02:12:03;;;;;;;;;;;14.40;94.00;;;;;;4967524;28;19914;-73
2023/06/04 02:14:30;;;;;;;;;;;14.40;94.10;;;;;;4967123;28;19918;-73
2023/06/04 02:16:57;;;;;;;;;;;14.40;94.10;;;;;;4970314;28;19954;-73
2023/06/04 02:19:26;;;;;;;;;;;14.40;94.30;;;;;;4962476;28;19922;-73
2023/06/04 02:21:53;;;;;;;;;;;14.40;94.30;;;;;;4963620;28;19910;-72
2023/06/04 02:24:18;;;;;;;;;;;14.40;94.20;;;;;;4963034;28;20001;-73
2023/06/04 02:26:44;;;;;;;;;;;14.40;94.30;;;;;;4971538;28;19989;-72
2023/06/04 02:29:09;;;;;;;;;;;14.50;94.50;;;;;;4966923;28;19914;-72
2023/06/04 02:31:36;;;;;;;;;;;14.50;94.00;;;;;;4966557;28;19921;-72
2023/06/04 02:34:03;;;;;;;;;;;14.60;93.80;;;;;;4959440;28;19910;-73
2023/06/04 02:36:28;;;;;;;;;;;14.70;93.80;;;;;;4968348;28;19965;-73
2023/06/04 02:38:54;;;;;;;;;;;14.80;93.70;;;;;;4969001;28;19960;-72
2023/06/04 02:41:19;;;;;;;;;;;14.80;93.60;;;;;;4967321;28;20461;-73
2023/06/04 02:43:45;;;;;;;;;;;14.80;93.10;;;;;;4961134;28;19918;-72
2023/06/04 02:46:16;;;;;;;;;;;14.90;92.80;;;;;;4967540;28;19925;-73
2023/06/04 02:48:42;;;;;;;;;;;15.00;92.90;;;;;;4967305;28;19918;-72
2023/06/04 02:51:10;;;;;;;;;;;15.00;92.80;;;;;;4959981;28;20283;-72
2023/06/04 02:53:36;;;;;;;;;;;15.10;92.60;;;;;;4965950;28;19914;-72
2023/06/04 02:56:02;;;;;;;;;;;15.10;92.80;;;;;;4966078;28;19921;-72
2023/06/04 02:58:28;;;;;;;;;;;15.00;93.20;;;;;;4962842;28;19918;-72
2023/06/04 03:00:55;;;;;;;;;;;15.00;93.10;;;;;;4963709;28;19910;-73
2023/06/04 03:03:23;;;;;;;;;;;15.00;93.50;;;;;;4968593;28;19922;-73
2023/06/04 03:05:54;;;;;;;;;;;15.00;93.30;;;;;;4965953;28;19928;-73
2023/06/04 03:08:21;;;;;;;;;;;15.00;93.10;;;;;;4964552;28;19920;-72
2023/06/04 03:10:46;;;;;;;;;;;15.10;93.30;;;;;;4966715;28;19941;-72
2023/06/04 03:13:12;;;;;;;;;;;15.10;93.10;;;;;;4964785;28;19965;-73
2023/06/04 03:15:38;;;;;;;;;;;15.20;92.60;;;;;;4959474;28;19914;-72
2023/06/04 03:18:05;;;;;;;;;;;15.00;93.70;;;;;;4961995;28;19910;-72
2023/06/04 03:20:30;;;;;;;;;;;15.00;93.50;;;;;;4960205;28;19961;-73
2023/06/04 03:22:57;;;;;;;;;;;15.00;93.90;;;;;;4963302;28;19972;-72
2023/06/04 03:25:23;;;;;;;;;;;14.90;94.10;;;;;;4963278;28;19916;-72
2023/06/04 03:27:48;;;;;;;;;;;14.90;94.10;;;;;;4966574;28;20291;-73
2023/06/04 03:30:14;;;;;;;;;;;15.00;94.30;;;;;;4959710;28;19918;-73
2023/06/04 03:32:39;;;;;;;;;;;15.20;93.40;;;;;;4963999;28;19910;-73
2023/06/04 03:35:06;;;;;;;;;;;15.30;92.70;;;;;;4963769;28;19914;-72
2023/06/04 03:37:32;;;;;;;;;;;15.50;92.10;;;;;;4963300;28;19957;-72
2023/06/04 03:39:58;;;;;;;;;;;15.40;92.20;;;;;;4961380;28;19993;-72
2023/06/04 03:42:23;;;;;;;;;;;15.10;92.50;;;;;;4966248;28;19918;-72
2023/06/04 03:44:49;;;;;;;;;;;15.00;93.00;;;;;;4959426;28;20637;-72
2023/06/04 03:47:14;;;;;;;;;;;15.10;94.60;;;;;;4961850;28;20617;-72
2023/06/04 03:49:40;;;;;;;;;;;15.20;93.30;;;;;;4961774;28;19917;-73
2023/06/04 03:52:06;;;;;;;;;;;15.40;92.90;;;;;;4971211;28;19968;-72
2023/06/04 03:54:31;;;;;;;;;;;15.50;92.90;;;;;;4958956;28;19911;-72
2023/06/04 03:56:58;;;;;;;;;;;15.40;93.30;;;;;;4965921;28;19913;-72
2023/06/04 03:59:23;;;;;;;;;;;15.30;93.10;;;;;;4964118;28;19910;-73
2023/06/04 04:01:51;;;;;;;;;;;15.30;93.70;;;;;;4958823;28;19910;-72
2023/06/04 04:04:17;;;;;;;;;;;15.30;94.30;;;;;;4962911;28;19937;-72
2023/06/04 04:06:43;;;;;;;;;;;15.40;94.30;;;;;;4965035;28;19993;-73
2023/06/04 04:09:13;;;;;;;;;;;15.40;93.60;;;;;;4965548;28;19914;-73
2023/06/04 04:11:40;;;;;;;;;;;15.40;92.80;;;;;;4967063;28;19921;-72
2023/06/04 04:14:10;;;;;;;;;;;15.20;93.10;;;;;;4958003;28;20030;-72
2023/06/04 04:16:41;;;;;;;;;;;15.20;93.60;;;;;;4959921;28;19910;-73
2023/06/04 04:19:07;;;;;;;;;;;15.30;94.00;;;;;;4963852;28;19921;-73
2023/06/04 04:21:36;;;;;;;;;;;15.50;93.90;;;;;;4960890;28;19914;-72
2023/06/04 04:24:02;;;;;;;;;;;15.60;93.80;;;;;;4963266;28;19914;-73
2023/06/04 04:26:28;;;;;;;;;;;15.70;93.10;;;;;;4964146;28;20811;-72
2023/06/04 04:28:57;;;;;;;;;;;15.60;93.10;;;;;;4958773;28;19957;-73
2023/06/04 04:31:26;;;;;;;;;;;15.60;93.80;;;;;;4954134;28;20337;-72
2023/06/04 04:33:54;;;;;;;;;;;15.60;94.10;;;;;;4961527;28;19914;-72
2023/06/04 04:36:21;;;;;;;;;;;15.50;93.70;;;;;;4971032;28;19910;-72
2023/06/04 04:38:54;;;;;;;;;;;15.40;94.30;;;;;;4966999;28;19926;-72
2023/06/04 04:41:25;;;;;;;;;;;15.30;95.00;;;;;;4965949;28;19982;-73
2023/06/04 04:43:52;;;;;;;;;;;15.40;95.70;;;;;;4962301;28;20001;-72
2023/06/04 04:46:18;;;;;;;;;;;15.40;95.50;;;;;;4966585;28;19976;-72
2023/06/04 04:48:45;;;;;;;;;;;15.40;95.40;;;;;;4967730;28;20330;-72
2023/06/04 04:51:10;;;;;;;;;;;15.40;95.50;;;;;;4962635;28;19969;-72
2023/06/04 04:53:37;;;;;;;;;;;15.40;96.00;;;;;;4962170;28;19918;-73
2023/06/04 04:56:05;;;;;;;;;;;15.60;96.00;;;;;;4961815;28;19938;-72
2023/06/04 04:58:31;;;;;;;;;;;15.80;94.60;;;;;;4967353;28;19967;-72
2023/06/04 05:00:56;;;;;;;;;;;15.90;94.00;;;;;;4965515;28;19917;-73
2023/06/04 05:03:23;;;;;;;;;;;15.70;95.60;;;;;;4966143;28;19933;-72
2023/06/04 05:05:49;;;;;;;;;;;15.40;98.30;;;;;;4963656;28;19921;-72
2023/06/04 05:08:16;;;;;;;;;;;15.20;98.70;;;;;;4968158;28;19910;-73
2023/06/04 05:10:43;;;;;;;;;;;15.10;99.90;;;;;;4960598;28;19921;-72
2023/06/04 05:13:10;;;;;;;;;;;15.20;99.70;;;;;;4972560;28;19996;-72
2023/06/04 05:15:36;;;;;;;;;;;15.10;99.90;;;;;;4958828;28;20283;-72
2023/06/04 05:18:03;;;;;;;;;;;15.10;99.90;;;;;;4965400;28;19910;-72
2023/06/04 05:20:29;;;;;;;;;;;15.40;99.90;;;;;;4968153;28;19918;-73
2023/06/04 05:22:56;;;;;;;;;;;15.40;99.90;;;;;;4964766;28;19921;-72
2023/06/04 05:25:22;;;;;;;;;;;15.50;99.90;;;;;;4964461;28;19917;-72
2023/06/04 05:27:50;;;;;;;;;;;15.40;99.70;;;;;;4968819;28;19918;-73
2023/06/04 05:30:17;;;;;;;;;;;15.40;99.90;;;;;;4966917;28;19969;-72
2023/06/04 05:32:43;;;;;;;;;;;15.50;99.20;;;;;;4963868;28;19962;-72
2023/06/04 05:35:09;;;;;;;;;;;15.60;99.90;;;;;;4959107;28;19942;-72
2023/06/04 05:37:35;;;;;;;;;;;15.70;99.40;;;;;;4959550;28;20387;-72
2023/06/04 05:40:02;;;;;;;;;;;15.70;99.80;;;;;;4964870;28;20348;-72
2023/06/04 05:42:30;;;;;;;;;;;15.60;98.00;;;;;;4960335;28;19929;-76
2023/06/04 05:44:55;;;;;;;;;;;15.60;98.40;;;;;;4967999;28;20482;-77
2023/06/04 05:47:31;;;;;;;;;;;15.70;98.70;;;;;;4966386;28;20008;-78
2023/06/04 05:50:04;;;;;;;;;;;15.70;97.60;;;;;;4963611;28;19910;-79
2023/06/04 05:52:33;;;;;;;;;;;15.80;98.30;;;;;;4963348;28;19919;-76
2023/06/04 05:55:07;;;;;;;;;;;15.70;96.90;;;;;;4962487;28;19918;-77
2023/06/04 05:57:36;;;;;;;;;;;15.70;98.20;;;;;;4959920;28;19910;-77
2023/06/04 06:00:06;;;;;;;;;;;15.70;98.20;;;;;;4965861;28;19921;-77
2023/06/04 06:02:43;;;;;;;;;;;15.60;97.50;;;;;;4967192;28;19914;-77
2023/06/04 06:05:18;;;;;;;;;;;15.70;97.00;;;;;;4964339;28;19910;-78
2023/06/04 06:07:44;;;;;;;;;;;16.00;97.20;;;;;;4969330;28;20512;-78
2023/06/04 06:10:11;;;;;;;;;;;16.20;96.30;;;;;;4963305;28;19917;-79
2023/06/04 06:12:43;;;;;;;;;;;16.20;96.80;;;;;;4962006;28;19910;-77
2023/06/04 06:15:09;;;;;;;;;;;16.30;96.90;;;;;;4962028;28;20275;-78
2023/06/04 06:17:37;;;;;;;;;;;16.30;96.70;;;;;;4962839;28;19926;-78
2023/06/04 06:20:07;;;;;;;;;;;16.20;95.80;;;;;;4964970;28;19993;-79
2023/06/04 06:22:35;;;;;;;;;;;16.20;95.80;;;;;;4967344;28;20287;-77
2023/06/04 06:25:03;;;;;;;;;;;16.20;96.40;;;;;;4966326;28;21689;-78
2023/06/04 06:27:37;;;;;;;;;;;16.40;95.20;;;;;;4964375;28;19945;-77
2023/06/04 06:30:03;;;;;;;;;;;16.20;95.90;;;;;;4961405;28;20307;-77
2023/06/04 06:32:36;;;;;;;;;;;16.20;95.60;;;;;;4966548;28;20419;-78
2023/06/04 06:35:01;;;;;;;;;;;16.20;96.00;;;;;;4960707;28;20009;-63
2023/06/04 06:37:29;;;;;;;;;;;16.20;96.30;;;;;;4965166;28;20013;-77
2023/06/04 06:40:03;;;;;;;;;;;16.10;96.00;;;;;;4966636;28;19925;-80
2023/06/04 06:42:33;;;;;;;;;;;15.90;96.90;;;;;;4968662;28;20333;-79
2023/06/04 06:45:06;;;;;;;;;;;15.90;96.60;;;;;;4960646;28;19910;-80
2023/06/04 06:47:34;;;;;;;;;;;15.80;97.40;;;;;;4961889;28;20606;-79
2023/06/04 06:50:02;;;;;;;;;;;15.80;97.70;;;;;;4961002;28;19910;-79
2023/06/04 06:52:34;;;;;;;;;;;15.80;97.60;;;;;;4964955;28;20533;-79
2023/06/04 06:55:03;;;;;;;;;;;16.00;97.30;;;;;;4966996;28;20721;-78
2023/06/04 06:57:34;;;;;;;;;;;16.10;97.40;;;;;;4966554;28;19913;-77
2023/06/04 07:00:01;;;;;;;;;;;16.00;98.30;;;;;;4961835;28;20651;-78
2023/06/04 07:02:43;;;;;;;;;;;16.00;98.10;;;;;;4962324;28;20430;-77
2023/06/04 07:05:10;;;;;;;;;;;16.20;98.00;;;;;;4972575;28;20028;-77
2023/06/04 07:07:36;;;;;;;;;;;16.40;97.10;;;;;;4962983;28;19914;-77
2023/06/04 07:10:03;;;;;;;;;;;16.70;95.70;;;;;;4963735;28;20272;-76
2023/06/04 07:12:36;;;;;;;;;;;17.00;95.90;;;;;;4967211;28;20316;-76
2023/06/04 07:15:03;;;;;;;;;;;17.20;94.60;;;;;;4959438;28;19929;-77
2023/06/04 07:17:29;;;;;;;;;;;17.60;93.70;;;;;;4967663;28;19914;-76
2023/06/04 07:20:07;;;;;;;;;;;17.70;93.00;;;;;;4962830;28;19949;-76
2023/06/04 07:22:34;;;;;;;;;;;18.10;92.10;;;;;;4960929;28;20659;-76
2023/06/04 07:25:00;;;;;;;;;;;18.40;91.30;;;;;;4969056;28;20566;-76
2023/06/04 07:27:29;;;;;;;;;;;18.80;90.40;;;;;;4965271;28;19917;-77
2023/06/04 07:30:02;;;;;;;;;;;19.40;89.60;;;;;;4967033;28;19914;-76
2023/06/04 07:32:27;;;;;;;;;;;20.00;85.10;;;;;;4965800;28;19914;-77
2023/06/04 07:35:02;;;;;;;;;;;20.10;85.30;;;;;;4952227;28;19910;-77
2023/06/04 07:37:33;;;;;;;;;;;19.90;84.50;;;;;;4966454;28;19921;-76
2023/06/04 07:39:58;;;;;;;;;;;19.40;84.30;;;;;;4971636;28;19921;-76
2023/06/04 07:42:24;;;;;;;;;;;19.20;86.00;;;;;;4969420;28;19936;-76
2023/06/04 07:44:49;;;;;;;;;;;19.00;86.60;;;;;;4969531;28;19914;-76
2023/06/04 07:47:19;;;;;;;;;;;18.80;87.60;;;;;;4966964;28;19923;-76
2023/06/04 07:49:48;;;;;;;;;;;19.00;87.30;;;;;;4949591;28;20360;-76
2023/06/04 07:52:17;;;;;;;;;;;19.10;86.50;;;;;;4959661;28;19957;-75
2023/06/04 07:55:09;;;;;;;;;;;18.90;86.90;;;;;;4967859;28;19918;-76
2023/06/04 07:57:36;;;;;;;;;;;18.60;88.50;;;;;;4961472;28;19918;-76
2023/06/04 08:00:04;;;;;;;;;;;18.40;88.80;;;;;;4967786;28;19918;-76
2023/06/04 08:02:29;;;;;;;;;;;18.60;89.00;;;;;;4969538;28;19937;-77
2023/06/04 08:05:03;;;;;;;;;;;18.60;88.80;;;;;;4963367;28;19964;-74
2023/06/04 08:07:34;;;;;;;;;;;18.70;88.30;;;;;;4974045;28;19920;-76
2023/06/04 08:10:03;;;;;;;;;;;18.90;88.90;;;;;;4973818;28;19924;-76
2023/06/04 08:12:37;;;;;;;;;;;19.30;87.80;;;;;;4970819;28;20339;-77
2023/06/04 08:15:03;;;;;;;;;;;19.60;87.20;;;;;;4967870;28;19920;-76
2023/06/04 08:17:32;;;;;;;;;;;20.00;85.30;;;;;;4971577;28;19910;-77
2023/06/04 08:19:58;;;;;;;;;;;20.40;84.60;;;;;;4970942;28;19994;-78
2023/06/04 08:22:24;;;;;;;;;;;20.50;82.80;;;;;;4968965;28;19956;-77
2023/06/04 08:24:51;;;;;;;;;;;20.50;83.70;;;;;;4966081;28;19954;-77
2023/06/04 08:27:17;;;;;;;;;;;20.30;83.00;;;;;;4967506;28;19909;-77
2023/06/04 08:29:43;;;;;;;;;;;19.80;83.90;;;;;;4972786;28;20000;-77
2023/06/04 08:32:17;;;;;;;;;;;19.80;85.20;;;;;;4969234;28;19918;-77
2023/06/04 08:34:52;;;;;;;;;;;20.10;84.30;;;;;;4972930;28;20347;-76
2023/06/04 08:37:25;;;;;;;;;;;20.40;83.40;;;;;;4970657;28;19924;-76
2023/06/04 08:39:52;;;;;;;;;;;21.30;81.50;;;;;;4976276;28;19918;-77
2023/06/04 08:42:26;;;;;;;;;;;21.80;79.30;;;;;;4969368;28;20492;-77
2023/06/04 08:44:52;;;;;;;;;;;21.80;79.20;;;;;;4970803;28;20015;-75
2023/06/04 08:47:25;;;;;;;;;;;21.40;79.30;;;;;;4971733;28;20351;-77
2023/06/04 08:50:00;;;;;;;;;;;21.40;80.40;;;;;;4963030;28;19910;-76
2023/06/04 08:52:31;;;;;;;;;;;20.50;80.90;;;;;;4966254;28;19910;-76
2023/06/04 08:54:57;;;;;;;;;;;20.30;82.00;;;;;;4963147;28;20364;-77
2023/06/04 08:57:30;;;;;;;;;;;20.40;81.60;;;;;;4968121;28;19920;-76
2023/06/04 08:59:57;;;;;;;;;;;20.50;83.80;;;;;;4960084;28;20639;-77
2023/06/04 09:02:26;;;;;;;;;;;21.00;84.40;;;;;;4968054;28;19909;-77
2023/06/04 09:04:53;;;;;;;;;;;21.90;81.00;;;;;;4963384;28;20379;-77
2023/06/04 09:07:28;;;;;;;;;;;23.10;79.30;;;;;;4967116;28;19973;-77
2023/06/04 09:09:55;;;;;;;;;;;24.10;76.90;;;;;;4965898;28;20000;-77
2023/06/04 09:12:23;;;;;;;;;;;25.00;73.80;;;;;;4959786;28;19911;-76
2023/06/04 09:14:50;;;;;;;;;;;25.30;71.60;;;;;;4960479;28;19924;-77
2023/06/04 09:17:28;;;;;;;;;;;24.10;73.50;;;;;;4964706;28;19914;-77
2023/06/04 09:19:58;;;;;;;;;;;23.40;75.60;;;;;;4967309;28;19914;-77
2023/06/04 09:22:35;;;;;;;;;;;23.20;76.50;;;;;;4973021;28;19917;-77
2023/06/04 09:25:09;;;;;;;;;;;23.10;77.60;;;;;;4963297;28;19918;-78
2023/06/04 09:27:39;;;;;;;;;;;23.00;76.40;;;;;;4965457;28;19922;-78
2023/06/04 09:30:10;;;;;;;;;;;22.50;77.40;;;;;;4970771;28;20228;-77
2023/06/04 09:32:41;;;;;;;;;;;22.40;78.90;;;;;;4970193;28;19910;-78
2023/06/04 09:35:18;;;;;;;;;;;22.40;78.00;;;;;;4971263;28;19914;-77
2023/06/04 09:37:55;;;;;;;;;;;22.30;78.90;;;;;;4965284;28;19934;-77
2023/06/04 09:40:21;;;;;;;;;;;21.90;77.60;;;;;;4971670;28;20314;-78
2023/06/04 09:42:53;;;;;;;;;;;21.20;80.30;;;;;;4964990;28;19929;-77
2023/06/04 09:45:29;;;;;;;;;;;21.10;81.60;;;;;;4967494;28;19917;-77
2023/06/04 09:47:54;;;;;;;;;;;21.20;82.00;;;;;;4967297;28;19997;-78
2023/06/04 09:50:27;;;;;;;;;;;20.90;81.40;;;;;;4968413;28;20542;-77
2023/06/04 09:52:54;;;;;;;;;;;21.20;82.20;;;;;;4961225;28;19917;-77
2023/06/04 09:55:22;;;;;;;;;;;21.70;79.90;;;;;;4961987;28;19910;-76
2023/06/04 09:57:50;;;;;;;;;;;20.90;80.10;;;;;;4967849;28;19914;-76
2023/06/04 10:00:22;;;;;;;;;;;20.90;82.20;;;;;;4960789;28;20371;-77
2023/06/04 10:02:49;;;;;;;;;;;21.30;80.90;;;;;;4964146;28;20682;-76
2023/06/04 10:05:16;;;;;;;;;;;22.10;78.90;;;;;;4963013;28;19918;-77
2023/06/04 10:07:43;;;;;;;;;;;22.60;77.80;;;;;;4964313;28;20711;-77
2023/06/04 10:10:15;;;;;;;;;;;24.60;74.70;;;;;;4966997;28;19918;-77
2023/06/04 10:12:41;;;;;;;;;;;26.70;70.00;;;;;;4959867;28;19914;-77
2023/06/04 10:15:10;;;;;;;;;;;27.30;68.10;;;;;;4960597;28;19918;-77
2023/06/04 10:17:43;;;;;;;;;;;25.00;70.10;;;;;;4965911;28;19917;-76
2023/06/04 10:20:10;;;;;;;;;;;25.00;71.80;;;;;;4967912;28;20688;-76
2023/06/04 10:22:37;;;;;;;;;;;25.90;69.50;;;;;;4960185;28;19964;-78
2023/06/04 10:25:04;;;;;;;;;;;26.50;68.10;;;;;;4969589;28;19956;-77
2023/06/04 10:27:35;;;;;;;;;;;28.50;66.10;;;;;;4959772;28;20275;-77
2023/06/04 10:30:01;;;;;;;;;;;28.50;63.70;;;;;;4963091;28;19922;-72
2023/06/04 10:32:29;;;;;;;;;;;26.90;65.80;;;;;;4959905;28;20084;-75
2023/06/04 10:34:55;;;;;;;;;;;27.10;66.30;;;;;;4964673;28;20235;-75
2023/06/04 10:37:21;;;;;;;;;;;28.30;65.20;;;;;;4956545;28;19960;-75
2023/06/04 10:39:54;;;;;;;;;;;29.40;63.40;;;;;;4966699;28;19926;-75
2023/06/04 10:42:21;;;;;;;;;;;29.70;62.80;;;;;;4959418;28;20008;-74
2023/06/04 10:44:48;;;;;;;;;;;29.40;61.30;;;;;;4963747;28;20727;-75
2023/06/04 10:47:24;;;;;;;;;;;27.30;63.30;;;;;;4963977;28;19960;-75
2023/06/04 10:49:51;;;;;;;;;;;27.40;64.40;;;;;;4964338;28;19910;-75
2023/06/04 10:52:18;;;;;;;;;;;27.20;64.40;;;;;;4963361;28;19918;-75
2023/06/04 10:55:02;;;;;;;;;;;26.30;65.30;;;;;;4963708;28;19914;-76
2023/06/04 10:57:50;;;;;;;;;;;25.30;67.20;;;;;;4965537;28;19914;-78
2023/06/04 11:00:16;;;;;;;;;;;24.00;70.20;;;;;;4961387;28;19927;-78
2023/06/04 11:02:51;;;;;;;;;;;24.00;70.50;;;;;;4965739;28;19914;-75
2023/06/04 11:05:20;;;;;;;;;;;24.30;70.60;;;;;;4961785;28;19925;-74
2023/06/04 11:07:49;;;;;;;;;;;24.10;70.40;;;;;;4966784;28;19920;-78
2023/06/04 11:10:30;;;;;;;;;;;23.90;70.70;;;;;;4959742;28;19910;-77
2023/06/04 11:12:57;;;;;;;;;;;23.00;72.90;;;;;;4962530;28;19914;-79
2023/06/04 11:15:22;;;;;;;;;;;23.40;73.10;;;;;;4960422;28;19922;-78
2023/06/04 11:17:49;;;;;;;;;;;24.00;71.50;;;;;;4960047;28;19933;-78
2023/06/04 11:20:19;;;;;;;;;;;24.30;71.00;;;;;;4961665;28;19960;-77
2023/06/04 11:22:56;;;;;;;;;;;23.90;71.30;;;;;;4960855;28;21273;-78
2023/06/04 11:25:24;;;;;;;;;;;23.40;72.10;;;;;;4962231;28;19909;-78
2023/06/04 11:27:51;;;;;;;;;;;22.60;73.00;;;;;;4964631;28;19914;-78
2023/06/04 11:30:17;;;;;;;;;;;22.40;73.90;;;;;;4960380;28;19989;-78
2023/06/04 11:32:43;;;;;;;;;;;22.00;74.80;;;;;;4963889;28;20008;-78
2023/06/04 11:35:10;;;;;;;;;;;21.80;74.90;;;;;;4968978;28;19980;-77
2023/06/04 11:37:36;;;;;;;;;;;21.70;75.90;;;;;;4965039;28;19953;-78
2023/06/04 11:40:06;;;;;;;;;;;22.00;76.00;;;;;;4965653;28;19921;-79
2023/06/04 11:42:38;;;;;;;;;;;22.40;74.80;;;;;;4963134;28;19921;-78
2023/06/04 11:45:06;;;;;;;;;;;22.50;74.20;;;;;;4967841;28;19910;-78
2023/06/04 11:47:33;;;;;;;;;;;22.50;73.80;;;;;;4967236;28;19918;-78
2023/06/04 11:49:59;;;;;;;;;;;22.00;74.60;;;;;;4963351;28;19961;-78
2023/06/04 11:52:25;;;;;;;;;;;22.10;76.00;;;;;;4964878;28;20104;-78
2023/06/04 11:54:56;;;;;;;;;;;22.00;75.30;;;;;;4970049;28;20004;-78
2023/06/04 11:57:24;;;;;;;;;;;22.10;75.40;;;;;;4973145;28;20275;-77
2023/06/04 11:59:52;;;;;;;;;;;22.00;75.80;;;;;;4969993;28;19910;-78
2023/06/04 12:02:24;;;;;;;;;;;22.30;75.30;;;;;;4971368;28;20331;-78
2023/06/04 12:04:52;;;;;;;;;;;22.70;75.40;;;;;;4967804;28;20231;-78
2023/06/04 12:07:24;;;;;;;;;;;23.10;73.80;;;;;;4963007;28;19964;-78
2023/06/04 12:09:52;;;;;;;;;;;23.10;73.40;;;;;;4968983;28;19914;-78
2023/06/04 12:12:21;;;;;;;;;;;23.40;73.90;;;;;;4960351;28;19915;-78
2023/06/04 12:14:48;;;;;;;;;;;23.70;72.70;;;;;;4962145;28;19914;-79
2023/06/04 12:17:13;;;;;;;;;;;23.30;73.10;;;;;;4968296;28;19957;-78
2023/06/04 12:19:48;;;;;;;;;;;23.20;74.50;;;;;;4968364;28;19914;-78
2023/06/04 12:22:19;;;;;;;;;;;22.80;75.20;;;;;;4962876;28;19917;-78
2023/06/04 12:24:54;;;;;;;;;;;22.90;75.00;;;;;;4964131;28;19958;-78
2023/06/04 12:27:21;;;;;;;;;;;23.20;74.50;;;;;;4966628;28;19917;-78
2023/06/04 12:30:04;;;;;;;;;;;23.10;74.30;;;;;;4963479;28;19910;-78
2023/06/04 12:32:40;;;;;;;;;;;22.90;74.40;;;;;;4972764;28;19897;-82
2023/06/04 12:35:11;;;;;;;;;;;22.80;75.10;;;;;;4973438;28;19935;-78
2023/06/04 12:37:37;;;;;;;;;;;22.80;74.40;;;;;;4968716;28;19995;-74
2023/06/04 12:40:06;;;;;;;;;;;22.60;75.10;;;;;;4965934;28;20017;-76
2023/06/04 12:42:33;;;;;;;;;;;22.50;75.30;;;;;;4963963;28;19910;-76
2023/06/04 12:45:05;;;;;;;;;;;22.60;74.70;;;;;;4961842;28;19910;-76
2023/06/04 12:47:46;;;;;;;;;;;22.20;76.30;;;;;;4968081;28;20751;-76
2023/06/04 12:50:14;;;;;;;;;;;22.40;76.40;;;;;;4964680;28;19946;-76
2023/06/04 12:52:43;;;;;;;;;;;22.00;75.80;;;;;;4968108;28;20553;-76
2023/06/04 12:55:10;;;;;;;;;;;22.10;76.90;;;;;;4969821;28;20293;-75
2023/06/04 12:57:37;;;;;;;;;;;22.40;77.60;;;;;;4966782;28;20665;-76
2023/06/04 13:00:04;;;;;;;;;;;22.30;76.90;;;;;;4965491;28;19914;-76
2023/06/04 13:02:39;;;;;;;;;;;22.00;77.90;;;;;;4959226;28;19910;-76
2023/06/04 13:05:05;;;;;;;;;;;22.00;78.20;;;;;;4960500;28;19910;-76
2023/06/04 13:07:31;;;;;;;;;;;21.90;78.60;;;;;;4961644;28;20391;-76
2023/06/04 13:09:57;;;;;;;;;;;22.30;78.70;;;;;;4965413;28;19914;-76
2023/06/04 13:12:24;;;;;;;;;;;22.40;77.70;;;;;;4963588;28;19913;-76
2023/06/04 13:14:50;;;;;;;;;;;22.50;77.00;;;;;;4973900;28;19914;-76
2023/06/04 13:17:15;;;;;;;;;;;22.50;77.10;;;;;;4957209;28;20611;-77
2023/06/04 13:19:41;;;;;;;;;;;22.80;77.00;;;;;;4972514;28;19945;-76
2023/06/04 13:22:09;;;;;;;;;;;23.20;77.00;;;;;;4961529;28;19949;-76
2023/06/04 13:24:40;;;;;;;;;;;23.20;76.20;;;;;;4968816;28;19918;-76
2023/06/04 13:27:07;;;;;;;;;;;23.20;76.00;;;;;;4967969;28;19925;-76
2023/06/04 13:29:36;;;;;;;;;;;23.00;77.20;;;;;;4960507;28;19953;-76
2023/06/04 13:32:04;;;;;;;;;;;22.80;77.30;;;;;;4968081;28;19960;-77
2023/06/04 13:34:37;;;;;;;;;;;22.70;77.90;;;;;;4970649;28;19916;-77
2023/06/04 13:37:04;;;;;;;;;;;22.70;78.30;;;;;;4966613;28;20239;-76
2023/06/04 13:39:30;;;;;;;;;;;22.50;78.30;;;;;;4967754;28;20492;-77
2023/06/04 13:42:15;;;;;;;;;;;22.80;79.30;;;;;;4967251;28;20004;-76
2023/06/04 13:44:42;;;;;;;;;;;22.40;80.00;;;;;;4962693;28;19915;-76
2023/06/04 13:47:13;;;;;;;;;;;22.40;80.40;;;;;;4966584;28;19910;-77
2023/06/04 13:49:39;;;;;;;;;;;22.60;79.70;;;;;;4958916;28;19921;-76
2023/06/04 13:52:05;;;;;;;;;;;22.60;79.60;;;;;;4962057;28;19918;-77
2023/06/04 13:54:33;;;;;;;;;;;22.50;80.40;;;;;;4965571;28;21131;-76
2023/06/04 13:57:06;;;;;;;;;;;22.20;80.20;;;;;;4963379;28;19910;-76
2023/06/04 13:59:38;;;;;;;;;;;22.00;81.60;;;;;;4963761;28;20020;-77
2023/06/04 14:02:07;;;;;;;;;;;22.10;81.30;;;;;;4967602;28;20217;-76
2023/06/04 14:04:37;;;;;;;;;;;22.00;81.10;;;;;;4961120;28;19993;-76
2023/06/04 14:07:06;;;;;;;;;;;21.70;81.60;;;;;;4961352;28;20395;-76
2023/06/04 14:09:39;;;;;;;;;;;21.50;83.50;;;;;;4966509;28;19918;-77
2023/06/04 14:12:05;;;;;;;;;;;21.20;83.10;;;;;;4962793;28;19910;-76
2023/06/04 14:14:36;;;;;;;;;;;21.30;84.30;;;;;;4962619;28;20490;-77
2023/06/04 14:17:06;;;;;;;;;;;21.40;84.30;;;;;;4960047;28;20367;-77
2023/06/04 14:19:38;;;;;;;;;;;21.60;84.70;;;;;;4963392;28;19918;-77
2023/06/04 14:22:05;;;;;;;;;;;21.80;84.20;;;;;;4961982;28;20360;-77
2023/06/04 14:24:35;;;;;;;;;;;21.80;83.20;;;;;;4959543;28;21251;-77